sensor_id;sensor_type;location;lat;lon;timestamp;P1;durP1;ratioP1;P2;durP2;ratioP2
14320;SDS011;7244;47.364;8.464;2023-02-28T00:00:03;12;;;6;;
14320;SDS011;7244;47.364;8.464;2023-02-28T00:16:02;12;;;6;;
14320;SDS011;7244;47.364;8.464;2023-02-28T00:31:01;13;;;7;;
14320;SDS011;7244;47.364;8.464;2023-02-28T00:47:01;11;;;6;;
14320;SDS011;7244;47.364;8.464;2023-02-28T01:03:01;12;;;7;;
14320;SDS011;7244;47.364;8.464;2023-02-28T01:19:02;13;;;7;;
14320;SDS011;7244;47.364;8.464;2023-02-28T01:34:01;13;;;7;;
14320;SDS011;7244;47.364;8.464;2023-02-28T01:50:03;14;;;7;;
14320;SDS011;7244;47.364;8.464;2023-02-28T02:06:01;15;;;8;;
14320;SDS011;7244;47.364;8.464;2023-02-28T02:21:23;14;;;7;;
14320;SDS011;7244;47.364;8.464;2023-02-28T02:37:04;13;;;7;;
14320;SDS011;7244;47.364;8.464;2023-02-28T02:53:02;15;;;8;;
14320;SDS011;7244;47.364;8.464;2023-02-28T03:09:01;15;;;8;;
14320;SDS011;7244;47.364;8.464;2023-02-28T03:24:03;21;;;8;;
14320;SDS011;7244;47.364;8.464;2023-02-28T03:40:04;16;;;8;;
14320;SDS011;7244;47.364;8.464;2023-02-28T03:56:03;16;;;8;;
14320;SDS011;7244;47.364;8.464;2023-02-28T04:11:03;14;;;8;;
14320;SDS011;7244;47.364;8.464;2023-02-28T04:27:01;19;;;8;;
14320;SDS011;7244;47.364;8.464;2023-02-28T04:43:02;32;;;10;;
14320;SDS011;7244;47.364;8.464;2023-02-28T04:59:01;13;;;8;;
14320;SDS011;7244;47.364;8.464;2023-02-28T05:14:02;14;;;7;;
14320;SDS011;7244;47.364;8.464;2023-02-28T05:30:02;13;;;8;;
14320;SDS011;7244;47.364;8.464;2023-02-28T05:46:02;31;;;9;;
14320;SDS011;7244;47.364;8.464;2023-02-28T06:02:01;98;;;13;;
14320;SDS011;7244;47.364;8.464;2023-02-28T06:17:02;26;;;9;;
14320;SDS011;7244;47.364;8.464;2023-02-28T06:33:01;26;;;9;;
14320;SDS011;7244;47.364;8.464;2023-02-28T06:34:01;26;;;9;;
14320;SDS011;7244;47.364;8.464;2023-02-28T06:35:02;26;;;9;;
14320;SDS011;7244;47.364;8.464;2023-02-28T06:36:02;26;;;9;;
14320;SDS011;7244;47.364;8.464;2023-02-28T06:37:02;26;;;9;;
14320;SDS011;7244;47.364;8.464;2023-02-28T06:38:01;26;;;9;;
14320;SDS011;7244;47.364;8.464;2023-02-28T06:39:02;26;;;9;;
14320;SDS011;7244;47.364;8.464;2023-02-28T06:40:03;26;;;9;;
14320;SDS011;7244;47.364;8.464;2023-02-28T06:41:01;26;;;9;;
14320;SDS011;7244;47.364;8.464;2023-02-28T06:42:02;26;;;9;;
14320;SDS011;7244;47.364;8.464;2023-02-28T06:43:01;26;;;9;;
14320;SDS011;7244;47.364;8.464;2023-02-28T06:44:01;26;;;9;;
14320;SDS011;7244;47.364;8.464;2023-02-28T06:45:01;26;;;9;;
14320;SDS011;7244;47.364;8.464;2023-02-28T06:46:02;26;;;9;;
14320;SDS011;7244;47.364;8.464;2023-02-28T06:47:02;25;;;9;;
14320;SDS011;7244;47.364;8.464;2023-02-28T07:04:02;21;;;8;;
14320;SDS011;7244;47.364;8.464;2023-02-28T07:20:01;26;;;9;;
14320;SDS011;7244;47.364;8.464;2023-02-28T07:36:02;34;;;9;;
14320;SDS011;7244;47.364;8.464;2023-02-28T07:52:02;33;;;9;;
14320;SDS011;7244;47.364;8.464;2023-02-28T08:07:02;24;;;8;;
14320;SDS011;7244;47.364;8.464;2023-02-28T08:23:01;25;;;9;;
14320;SDS011;7244;47.364;8.464;2023-02-28T08:39:02;18;;;9;;
14320;SDS011;7244;47.364;8.464;2023-02-28T08:55:02;18;;;9;;
14320;SDS011;7244;47.364;8.464;2023-02-28T08:56:02;18;;;9;;
14320;SDS011;7244;47.364;8.464;2023-02-28T08:57:02;18;;;9;;
14320;SDS011;7244;47.364;8.464;2023-02-28T08:58:02;18;;;9;;
14320;SDS011;7244;47.364;8.464;2023-02-28T08:59:02;18;;;9;;
14320;SDS011;7244;47.364;8.464;2023-02-28T09:00:02;18;;;9;;
14320;SDS011;7244;47.364;8.464;2023-02-28T09:01:07;18;;;9;;
14320;SDS011;7244;47.364;8.464;2023-02-28T09:02:02;18;;;9;;
14320;SDS011;7244;47.364;8.464;2023-02-28T09:03:02;18;;;9;;
14320;SDS011;7244;47.364;8.464;2023-02-28T09:04:02;18;;;9;;
14320;SDS011;7244;47.364;8.464;2023-02-28T09:05:02;18;;;9;;
14320;SDS011;7244;47.364;8.464;2023-02-28T09:06:01;18;;;9;;
14320;SDS011;7244;47.364;8.464;2023-02-28T09:07:02;18;;;9;;
14320;SDS011;7244;47.364;8.464;2023-02-28T09:08:01;18;;;9;;
14320;SDS011;7244;47.364;8.464;2023-02-28T09:09:02;22;;;11;;
14320;SDS011;7244;47.364;8.464;2023-02-28T09:26:02;16;;;9;;
14320;SDS011;7244;47.364;8.464;2023-02-28T09:42:01;16;;;9;;
14320;SDS011;7244;47.364;8.464;2023-02-28T09:57:04;19;;;10;;
14320;SDS011;7244;47.364;8.464;2023-02-28T10:13:03;24;;;10;;
14320;SDS011;7244;47.364;8.464;2023-02-28T10:29:01;20;;;9;;
14320;SDS011;7244;47.364;8.464;2023-02-28T10:45:09;18;;;9;;
14320;SDS011;7244;47.364;8.464;2023-02-28T11:00:12;17;;;10;;
14320;SDS011;7244;47.364;8.464;2023-02-28T11:16:03;26;;;10;;
14320;SDS011;7244;47.364;8.464;2023-02-28T11:32:04;20;;;10;;
14320;SDS011;7244;47.364;8.464;2023-02-28T11:48:04;17;;;9;;
14320;SDS011;7244;47.364;8.464;2023-02-28T12:03:04;24;;;11;;
14320;SDS011;7244;47.364;8.464;2023-02-28T12:19:06;19;;;10;;
14320;SDS011;7244;47.364;8.464;2023-02-28T12:35:03;20;;;10;;
14320;SDS011;7244;47.364;8.464;2023-02-28T12:50:03;22;;;11;;
14320;SDS011;7244;47.364;8.464;2023-02-28T13:06:05;25;;;11;;
14320;SDS011;7244;47.364;8.464;2023-02-28T13:22:02;26;;;12;;
14320;SDS011;7244;47.364;8.464;2023-02-28T13:38:12;18;;;11;;
14320;SDS011;7244;47.364;8.464;2023-02-28T13:53:07;21;;;10;;
14320;SDS011;7244;47.364;8.464;2023-02-28T14:09:02;24;;;10;;
14320;SDS011;7244;47.364;8.464;2023-02-28T14:25:09;20;;;12;;
14320;SDS011;7244;47.364;8.464;2023-02-28T14:40:02;19;;;10;;
14320;SDS011;7244;47.364;8.464;2023-02-28T14:56:01;24;;;12;;
14320;SDS011;7244;47.364;8.464;2023-02-28T15:12:01;25;;;13;;
14320;SDS011;7244;47.364;8.464;2023-02-28T15:28:01;32;;;14;;
14320;SDS011;7244;47.364;8.464;2023-02-28T15:43:04;28;;;13;;
14320;SDS011;7244;47.364;8.464;2023-02-28T15:59:02;29;;;14;;
14320;SDS011;7244;47.364;8.464;2023-02-28T16:15:05;32;;;14;;
14320;SDS011;7244;47.364;8.464;2023-02-28T16:31:02;25;;;13;;
14320;SDS011;7244;47.364;8.464;2023-02-28T16:46:02;27;;;14;;
14320;SDS011;7244;47.364;8.464;2023-02-28T17:02:04;32;;;15;;
14320;SDS011;7244;47.364;8.464;2023-02-28T17:18:02;35;;;15;;
14320;SDS011;7244;47.364;8.464;2023-02-28T17:33:01;32;;;16;;
14320;SDS011;7244;47.364;8.464;2023-02-28T17:49:02;34;;;17;;
14320;SDS011;7244;47.364;8.464;2023-02-28T18:05:01;32;;;17;;
14320;SDS011;7244;47.364;8.464;2023-02-28T18:21:02;30;;;17;;
14320;SDS011;7244;47.364;8.464;2023-02-28T18:36:02;33;;;17;;
14320;SDS011;7244;47.364;8.464;2023-02-28T18:52:02;35;;;17;;
14320;SDS011;7244;47.364;8.464;2023-02-28T19:08:02;29;;;15;;
14320;SDS011;7244;47.364;8.464;2023-02-28T19:24:02;32;;;16;;
14320;SDS011;7244;47.364;8.464;2023-02-28T19:39:02;35;;;18;;
14320;SDS011;7244;47.364;8.464;2023-02-28T19:55:02;30;;;16;;
14320;SDS011;7244;47.364;8.464;2023-02-28T20:11:02;34;;;16;;
14320;SDS011;7244;47.364;8.464;2023-02-28T20:26:01;35;;;18;;
14320;SDS011;7244;47.364;8.464;2023-02-28T20:42:02;32;;;16;;
14320;SDS011;7244;47.364;8.464;2023-02-28T20:58:02;28;;;14;;
14320;SDS011;7244;47.364;8.464;2023-02-28T21:14:02;35;;;18;;
14320;SDS011;7244;47.364;8.464;2023-02-28T21:29:02;41;;;18;;
14320;SDS011;7244;47.364;8.464;2023-02-28T21:45:02;33;;;17;;
14320;SDS011;7244;47.364;8.464;2023-02-28T22:01:03;35;;;17;;
14320;SDS011;7244;47.364;8.464;2023-02-28T22:17:01;37;;;19;;
14320;SDS011;7244;47.364;8.464;2023-02-28T22:32:02;36;;;18;;
14320;SDS011;7244;47.364;8.464;2023-02-28T22:48:02;39;;;20;;
14320;SDS011;7244;47.364;8.464;2023-02-28T23:04:02;42;;;22;;
14320;SDS011;7244;47.364;8.464;2023-02-28T23:19:02;44;;;22;;
14320;SDS011;7244;47.364;8.464;2023-02-28T23:35:02;45;;;22;;
14320;SDS011;7244;47.364;8.464;2023-02-28T23:51:01;49;;;24;;
